createdAt,value
2022-11-14T00:02:58.327Z,102200.33
2022-11-14T00:08:29.483Z,102203.06
2022-11-14T00:13:51.922Z,102190.83
2022-11-14T00:19:14.121Z,102183.73
2022-11-14T00:24:36.295Z,102184.67
2022-11-14T00:29:59.076Z,102181.22
2022-11-14T00:35:21.472Z,102181.42
2022-11-14T00:40:43.687Z,102188.66
2022-11-14T00:46:06.254Z,102181.64
2022-11-14T00:51:28.459Z,102178.97
2022-11-14T00:56:50.646Z,102175.42
2022-11-14T01:02:12.818Z,102178.03
2022-11-14T01:07:35.480Z,102158.74
2022-11-14T01:12:57.697Z,102166.76
2022-11-14T01:18:21.741Z,102148.31
2022-11-14T01:23:44.187Z,102148.53
2022-11-14T01:29:06.421Z,102137.97
2022-11-14T01:34:29.773Z,102126.63
2022-11-14T01:39:52.608Z,102118.55
2022-11-14T01:45:35.535Z,102111.60
2022-11-14T01:50:59.715Z,102109.02
2022-11-14T01:56:27.253Z,102112.59
2022-11-14T02:01:54.127Z,102108.50
2022-11-14T02:07:19.111Z,102100.55
2022-11-14T02:12:42.715Z,102095.27
2022-11-14T02:18:05.395Z,102091.95
2022-11-14T02:23:33.685Z,102089.34
2022-11-14T02:28:57.810Z,102089.41
2022-11-14T02:34:20.638Z,102076.05
2022-11-14T02:39:43.204Z,102069.97
2022-11-14T02:45:05.899Z,102072.73
2022-11-14T02:50:28.453Z,102068.31
2022-11-14T02:55:50.678Z,102070.99
2022-11-14T03:01:21.239Z,102060.37
2022-11-14T03:06:36.900Z,102043.42
2022-11-14T03:11:59.630Z,102049.69
2022-11-14T03:17:23.490Z,102045.22
2022-11-14T03:22:46.136Z,102030.94
2022-11-14T03:28:08.871Z,102028.27
2022-11-14T03:33:31.081Z,102033.52
2022-11-14T03:38:55.927Z,102022.12
2022-11-14T03:44:18.203Z,102025.85
2022-11-14T03:49:41.066Z,102020.45
2022-11-14T03:55:03.245Z,102024.05
2022-11-14T04:00:28.994Z,102015.23
2022-11-14T04:05:52.156Z,102016.11
2022-11-14T04:11:14.415Z,102000.09
2022-11-14T04:16:36.651Z,102000.02
2022-11-14T04:21:59.051Z,101993.88
2022-11-14T04:27:21.214Z,101982.20
2022-11-14T04:32:43.382Z,101979.53
2022-11-14T04:38:05.997Z,101971.59
2022-11-14T04:43:28.297Z,101971.66
2022-11-14T04:48:51.030Z,101971.81
2022-11-14T04:54:14.003Z,101982.48
2022-11-14T04:59:36.208Z,101976.28
2022-11-14T05:04:58.365Z,101970.14
2022-11-14T05:10:21.147Z,101957.75
2022-11-14T05:15:43.371Z,101955.19
2022-11-14T05:21:06.321Z,101948.91
2022-11-14T05:26:31.279Z,101949.78
2022-11-14T05:31:53.474Z,101949.84
2022-11-14T05:37:15.668Z,101950.84
2022-11-14T05:42:37.848Z,101959.00
2022-11-14T05:48:00.051Z,101967.14
2022-11-14T05:53:22.700Z,101962.86
2022-11-14T05:58:45.564Z,101965.53
2022-11-14T06:04:08.265Z,101971.73
2022-11-14T06:09:30.525Z,101974.47
2022-11-14T06:14:52.727Z,101972.60
2022-11-14T06:20:16.019Z,101979.73
2022-11-14T06:25:38.386Z,101981.60
2022-11-14T06:31:04.450Z,101974.95
2022-11-14T06:36:28.066Z,101968.87
2022-11-14T06:41:50.320Z,101974.03
2022-11-14T06:47:12.520Z,101980.23
2022-11-14T06:52:34.703Z,101977.47
2022-11-14T06:58:00.603Z,101974.16
2022-11-14T07:03:22.838Z,101975.08
2022-11-14T07:08:45.793Z,101983.95
2022-11-14T07:14:10.804Z,101978.68
2022-11-14T07:19:32.991Z,101971.48
2022-11-14T07:24:55.290Z,101976.75
2022-11-14T07:30:18.113Z,101961.68
2022-11-14T07:35:40.479Z,101965.95
2022-11-14T07:41:09.626Z,101981.28
2022-11-14T07:46:35.743Z,101974.09
2022-11-14T07:51:57.930Z,101977.53
2022-11-14T07:57:20.131Z,101972.23
2022-11-14T08:02:42.337Z,101962.48
2022-11-14T08:08:05.546Z,101967.14
2022-11-14T08:13:32.827Z,101953.89
2022-11-14T08:18:54.165Z,101945.27
2022-11-14T08:24:16.833Z,101938.07
2022-11-14T08:29:39.186Z,101931.74
2022-11-14T08:35:01.372Z,101931.53
2022-11-14T08:46:18.760Z,101925.78
2022-11-14T08:51:41.069Z,101919.46
2022-11-14T08:57:05.096Z,101924.08
2022-11-14T09:02:31.002Z,101914.22
2022-11-14T09:07:53.871Z,101913.20
2022-11-14T09:13:16.728Z,101903.17
2022-11-14T09:18:39.440Z,101912.92
2022-11-14T09:24:02.505Z,101910.00
2022-11-14T09:29:25.211Z,101910.86
2022-11-14T09:34:48.552Z,101904.66
2022-11-14T09:40:11.488Z,101894.92
2022-11-14T09:45:34.975Z,101884.09
2022-11-14T09:51:02.362Z,101885.18
2022-11-14T09:56:37.734Z,101872.06
2022-11-14T10:02:22.892Z,101870.48
2022-11-14T10:08:05.684Z,101870.48
2022-11-14T10:14:07.528Z,101868.66
2022-11-14T10:19:44.159Z,101855.92
2022-11-14T10:25:47.363Z,101852.38
2022-11-14T10:31:30.325Z,101845.88
2022-11-14T10:37:06.558Z,101843.55
2022-11-14T10:42:43.531Z,101825.62
2022-11-14T10:48:25.599Z,101819.48
2022-11-14T10:54:30.810Z,101809.08
2022-11-14T10:59:53.102Z,101803.50
2022-11-14T11:05:20.481Z,101793.77
2022-11-14T11:11:03.399Z,101788.28
2022-11-14T11:16:32.064Z,101793.55
2022-11-14T11:22:03.088Z,101794.74
2022-11-14T11:27:40.993Z,101791.09
2022-11-14T11:33:03.493Z,101786.26
2022-11-14T11:38:28.300Z,101779.33
2022-11-14T11:43:57.186Z,101777.66
2022-11-14T11:49:31.078Z,101767.91
2022-11-14T11:55:24.846Z,101758.08
2022-11-14T12:00:48.092Z,101760.22
2022-11-14T12:06:32.137Z,101755.36
2022-11-14T12:12:04.858Z,101751.75
2022-11-14T12:17:52.819Z,101751.75
2022-11-14T12:23:50.538Z,101748.28
2022-11-14T12:29:38.360Z,101744.06
2022-11-14T12:35:03.052Z,101732.52
2022-11-14T12:40:38.510Z,101727.92
2022-11-14T12:46:09.557Z,101720.63
2022-11-14T12:51:55.306Z,101720.94
2022-11-14T12:57:23.587Z,101709.72
2022-11-14T13:03:10.300Z,101707.98
2022-11-14T13:09:11.908Z,101703.59
2022-11-14T13:14:53.128Z,101705.32
2022-11-14T13:20:46.068Z,101700.98
2022-11-14T13:26:29.864Z,101702.08
2022-11-14T13:32:04.545Z,101702.41
2022-11-14T13:38:02.561Z,101698.54
2022-11-14T13:43:49.520Z,101700.53
2022-11-14T13:49:49.659Z,101682.70
2022-11-14T13:55:13.394Z,101685.92
2022-11-14T14:00:37.191Z,101678.09
2022-11-14T14:06:40.698Z,101677.05
2022-11-14T14:12:26.080Z,101672.69
2022-11-14T14:18:01.702Z,101659.33
2022-11-14T14:23:51.836Z,101652.15
2022-11-14T14:29:41.822Z,101642.33
2022-11-14T14:35:05.207Z,101633.30
2022-11-14T14:40:41.059Z,101637.78
2022-11-14T14:46:06.537Z,101635.26
2022-11-14T14:51:43.064Z,101637.97
2022-11-14T14:57:17.834Z,101635.45
2022-11-14T15:02:41.487Z,101624.91
2022-11-14T15:08:06.710Z,101616.16
2022-11-14T15:13:35.153Z,101617.09
2022-11-14T15:18:58.686Z,101610.89
2022-11-14T15:24:37.019Z,101614.38
2022-11-14T15:30:11.581Z,101606.22
2022-11-14T15:35:44.339Z,101617.92
2022-11-14T15:41:23.815Z,101615.17
2022-11-14T15:46:50.331Z,101599.27
2022-11-14T15:52:18.594Z,101604.76
2022-11-14T15:57:40.780Z,101600.36
2022-11-14T16:03:17.266Z,101593.66
2022-11-14T16:08:39.441Z,101596.11
2022-11-14T16:14:01.648Z,101582.76
2022-11-14T16:19:28.173Z,101584.56
2022-11-14T16:24:50.372Z,101581.00
2022-11-14T16:30:13.994Z,101568.59
2022-11-14T16:35:43.615Z,101572.98
2022-11-14T16:41:05.819Z,101561.44
2022-11-14T16:46:28.782Z,101562.38
2022-11-14T16:51:51.270Z,101560.73
2022-11-14T16:57:13.641Z,101549.19
2022-11-14T17:02:36.991Z,101546.66
2022-11-14T17:07:59.380Z,101545.81
2022-11-14T17:13:24.463Z,101546.97
2022-11-14T17:18:46.876Z,101541.03
2022-11-14T17:24:14.204Z,101541.25
2022-11-14T17:29:36.542Z,101532.56
2022-11-14T17:34:58.743Z,101536.25
2022-11-14T17:40:21.798Z,101531.70
2022-11-14T17:45:44.425Z,101530.91
2022-11-14T17:51:13.668Z,101532.90
2022-11-14T17:56:44.336Z,101529.36
2022-11-14T18:02:02.766Z,101520.72
2022-11-14T18:07:25.673Z,101527.46
2022-11-14T18:12:48.418Z,101527.64
2022-11-14T18:18:10.833Z,101531.50
2022-11-14T18:23:33.256Z,101517.52
2022-11-14T18:28:58.377Z,101507.78
2022-11-14T18:34:21.033Z,101508.03
2022-11-14T18:39:43.301Z,101508.17
2022-11-14T18:45:05.494Z,101500.36
2022-11-14T18:50:27.934Z,101501.22
2022-11-14T18:55:53.965Z,101502.23
2022-11-14T19:01:32.398Z,101500.50
2022-11-14T19:06:56.749Z,101496.34
2022-11-14T19:12:19.036Z,101492.81
2022-11-14T19:17:41.304Z,101487.37
2022-11-14T19:23:03.517Z,101479.31
2022-11-14T19:28:26.168Z,101481.16
2022-11-14T19:33:50.219Z,101473.16
2022-11-14T19:39:16.627Z,101483.89
2022-11-14T19:44:39.259Z,101472.44
2022-11-14T19:50:02.124Z,101474.16
2022-11-14T19:55:24.486Z,101472.36
2022-11-14T20:00:46.663Z,101473.13
2022-11-14T20:06:09.726Z,101467.72
2022-11-14T20:11:33.419Z,101454.64
2022-11-14T20:16:56.787Z,101459.04
2022-11-14T20:22:19.986Z,101451.04
2022-11-14T20:27:42.316Z,101446.58
2022-11-14T20:33:04.576Z,101434.11
2022-11-14T20:38:26.906Z,101421.94
2022-11-14T20:43:50.071Z,101422.95
2022-11-14T20:49:12.942Z,101428.31
2022-11-14T20:54:41.448Z,101413.41
2022-11-14T21:00:04.052Z,101404.69
2022-11-14T21:05:26.995Z,101393.96
2022-11-14T21:10:55.011Z,101394.83
2022-11-14T21:16:20.031Z,101382.22
2022-11-14T21:21:45.161Z,101377.69
2022-11-14T21:27:08.984Z,101383.02
2022-11-14T21:32:31.181Z,101368.72
2022-11-14T21:37:53.388Z,101365.11
2022-11-14T21:43:15.607Z,101358.92
2022-11-14T21:48:41.492Z,101352.73
2022-11-14T21:54:06.736Z,101341.24
2022-11-14T21:59:33.660Z,101346.57
2022-11-14T22:04:56.347Z,101335.05
2022-11-14T22:10:18.769Z,101337.07
2022-11-14T22:15:42.343Z,101338.94
2022-11-14T22:21:06.209Z,101338.98
2022-11-14T22:26:29.420Z,101330.12
2022-11-14T22:31:53.233Z,101330.98
2022-11-14T22:37:15.425Z,101330.09
2022-11-14T22:42:37.983Z,101323.82
2022-11-14T22:48:03.906Z,101311.29
2022-11-14T22:53:26.099Z,101310.42
2022-11-14T22:58:53.672Z,101300.70
2022-11-14T23:04:20.002Z,101298.98
2022-11-14T23:09:44.103Z,101295.38
2022-11-14T23:15:06.414Z,101284.72
2022-11-14T23:20:29.755Z,101281.12
2022-11-14T23:25:54.293Z,101277.52
2022-11-14T23:36:51.102Z,101273.57
2022-11-14T23:42:13.323Z,101264.34
2022-11-14T23:47:35.525Z,101259.95
2022-11-14T23:52:57.727Z,101250.16
2022-11-14T23:58:20.208Z,101232.38
